createdAt,value
2018-06-05T00:00:46.794Z,24.8
2018-06-05T00:01:37.502Z,24.8
2018-06-05T00:02:26.676Z,24.8
2018-06-05T00:03:17.705Z,24.7
2018-06-05T00:04:07.929Z,24.7
2018-06-05T00:04:56.723Z,24.7
2018-06-05T00:05:47.753Z,24.7
2018-06-05T00:06:37.853Z,24.7
2018-06-05T00:07:27.289Z,24.8
2018-06-05T00:08:17.692Z,24.8
2018-06-05T00:09:07.796Z,24.8
2018-06-05T00:09:58.132Z,24.8
2018-06-05T00:10:47.942Z,24.8
2018-06-05T00:11:37.982Z,24.8
2018-06-05T00:12:28.632Z,24.8
2018-06-05T00:13:18.377Z,24.8
2018-06-05T00:14:08.387Z,24.8
2018-06-05T00:14:58.748Z,24.8
2018-06-05T00:15:48.518Z,24.7
2018-06-05T00:16:38.580Z,24.7
2018-06-05T00:17:28.675Z,24.7
2018-06-05T00:18:18.705Z,24.7
2018-06-05T00:19:09.100Z,24.7
2018-06-05T00:19:58.327Z,24.6
2018-06-05T00:20:49.440Z,24.6
2018-06-05T00:21:39.263Z,24.6
2018-06-05T00:22:29.277Z,24.5
2018-06-05T00:23:18.059Z,24.5
2018-06-05T00:24:09.020Z,24.6
2018-06-05T00:24:59.375Z,24.5
2018-06-05T00:25:48.864Z,24.6
2018-06-05T00:26:38.452Z,24.6
2018-06-05T00:27:28.442Z,24.6
2018-06-05T00:28:19.047Z,24.6
2018-06-05T00:29:08.916Z,24.6
2018-06-05T00:29:58.626Z,24.6
2018-06-05T00:30:49.196Z,24.7
2018-06-05T00:31:39.277Z,24.6
2018-06-05T00:32:29.018Z,24.6
2018-06-05T00:33:19.916Z,24.6
2018-06-05T00:34:09.104Z,24.6
2018-06-05T00:34:59.422Z,24.7
2018-06-05T00:35:49.486Z,24.7
2018-06-05T00:36:40.183Z,24.7
2018-06-05T00:37:30.523Z,24.6
2018-06-05T00:38:19.668Z,24.6
2018-06-05T00:39:10.624Z,24.7
2018-06-05T00:40:00.425Z,24.7
2018-06-05T00:40:49.885Z,24.6
2018-06-05T00:41:40.834Z,24.7
2018-06-05T00:42:31.160Z,24.6
2018-06-05T00:43:20.368Z,24.6
2018-06-05T00:44:10.723Z,24.6
2018-06-05T00:44:59.674Z,24.6
2018-06-05T00:45:50.586Z,24.6
2018-06-05T00:46:40.368Z,24.6
2018-06-05T00:47:30.741Z,24.6
2018-06-05T00:48:20.736Z,24.6
2018-06-05T00:49:11.638Z,24.6
2018-06-05T00:50:01.212Z,24.6
2018-06-05T00:50:50.773Z,24.6
2018-06-05T00:51:40.998Z,24.6
2018-06-05T00:52:31.037Z,24.7
2018-06-05T00:53:21.136Z,24.6
2018-06-05T00:54:11.752Z,24.6
2018-06-05T00:55:01.321Z,24.6
2018-06-05T00:55:52.128Z,24.6
2018-06-05T00:56:41.645Z,24.6
2018-06-05T00:57:31.166Z,24.6
2018-06-05T00:58:21.488Z,24.6
2018-06-05T00:59:11.832Z,24.6
2018-06-05T01:00:01.918Z,24.6
2018-06-05T01:00:51.794Z,24.6
2018-06-05T01:01:41.841Z,24.6
2018-06-05T01:02:31.887Z,24.6
2018-06-05T01:03:22.188Z,24.6
2018-06-05T01:04:11.705Z,24.6
2018-06-05T01:05:02.898Z,24.6
2018-06-05T01:05:52.123Z,24.6
2018-06-05T01:06:41.019Z,24.6
2018-06-05T01:07:31.630Z,24.6
2018-06-05T01:08:22.266Z,24.6
2018-06-05T01:09:12.053Z,24.6
2018-06-05T01:10:02.976Z,24.6
2018-06-05T01:10:52.744Z,24.6
2018-06-05T01:11:42.290Z,24.6
2018-06-05T01:12:32.613Z,24.5
2018-06-05T01:13:22.063Z,24.6
2018-06-05T01:14:12.746Z,24.6
2018-06-05T01:15:03.429Z,24.6
2018-06-05T01:15:52.649Z,24.5
2018-06-05T01:16:43.183Z,24.6
2018-06-05T01:17:32.990Z,24.5
2018-06-05T01:18:23.330Z,24.5
2018-06-05T01:19:13.668Z,24.5
2018-06-05T01:20:03.808Z,24.5
2018-06-05T01:20:53.508Z,24.6
2018-06-05T01:21:43.534Z,24.5
2018-06-05T01:22:33.183Z,24.5
2018-06-05T01:23:23.195Z,24.5
2018-06-05T01:24:13.781Z,24.5
2018-06-05T01:25:03.599Z,24.5
2018-06-05T01:25:53.665Z,24.5
2018-06-05T01:26:43.955Z,24.5
2018-06-05T01:27:34.015Z,24.5
2018-06-05T01:28:24.132Z,24.5
2018-06-05T01:29:14.201Z,24.6
2018-06-05T01:30:04.013Z,24.6
2018-06-05T01:30:53.773Z,24.5
2018-06-05T01:31:44.478Z,24.6
2018-06-05T01:32:34.402Z,24.5
2018-06-05T01:33:23.900Z,24.5
2018-06-05T01:34:14.876Z,24.5
2018-06-05T01:35:04.392Z,24.5
2018-06-05T01:35:52.765Z,24.5
2018-06-05T01:36:43.164Z,24.5
2018-06-05T01:37:33.076Z,24.5
2018-06-05T01:38:23.830Z,24.4
2018-06-05T01:39:14.091Z,24.4
2018-06-05T01:40:04.090Z,24.4
2018-06-05T01:40:53.746Z,24.4
2018-06-05T01:41:44.157Z,24.4
2018-06-05T01:42:32.871Z,24.4
2018-06-05T01:43:23.667Z,24.4
2018-06-05T01:44:13.854Z,24.4
2018-06-05T01:45:03.130Z,24.4
2018-06-05T01:45:53.419Z,24.4
2018-06-05T01:46:43.871Z,24.4
2018-06-05T01:47:33.928Z,24.4
2018-06-05T01:48:25.154Z,24.4
2018-06-05T01:49:14.658Z,24.4
2018-06-05T01:50:06.306Z,24.4
2018-06-05T01:50:56.138Z,24.4
2018-06-05T01:51:45.640Z,24.4
2018-06-05T01:52:35.929Z,24.4
2018-06-05T01:53:26.241Z,24.4
2018-06-05T01:54:16.366Z,24.4
2018-06-05T01:55:06.544Z,24.4
2018-06-05T01:55:56.259Z,24.4
2018-06-05T01:56:46.313Z,24.4
2018-06-05T01:57:36.631Z,24.4
2018-06-05T01:58:26.085Z,24.4
2018-06-05T01:59:15.146Z,24.4
2018-06-05T02:00:05.793Z,24.4
2018-06-05T02:00:56.113Z,24.4
2018-06-05T02:01:46.174Z,24.4
2018-06-05T02:02:36.281Z,24.4
2018-06-05T02:03:26.548Z,24.4
2018-06-05T02:04:16.078Z,24.4
2018-06-05T02:05:06.154Z,24.4
2018-06-05T02:05:55.685Z,24.4
2018-06-05T02:06:45.991Z,24.4
2018-06-05T02:07:36.653Z,24.4
2018-06-05T02:08:26.922Z,24.4
2018-06-05T02:09:16.713Z,24.4
2018-06-05T02:10:07.620Z,24.4
2018-06-05T02:10:56.848Z,24.5
2018-06-05T02:11:45.145Z,24.4
2018-06-05T02:12:36.553Z,24.4
2018-06-05T02:13:26.993Z,24.4
2018-06-05T02:14:16.602Z,24.4
2018-06-05T02:15:07.331Z,24.4
2018-06-05T02:15:56.779Z,24.4
2018-06-05T02:16:46.140Z,24.4
2018-06-05T02:17:38.012Z,24.4
2018-06-05T02:18:27.733Z,24.4
2018-06-05T02:19:17.753Z,24.4
2018-06-05T02:20:07.271Z,24.4
2018-06-05T02:20:58.175Z,24.4
2018-06-05T02:21:48.494Z,24.3
2018-06-05T02:22:37.700Z,24.3
2018-06-05T02:23:28.323Z,24.3
2018-06-05T02:24:18.121Z,24.3
2018-06-05T02:25:08.497Z,24.4
2018-06-05T02:25:57.970Z,24.4
2018-06-05T02:26:48.352Z,24.4
2018-06-05T02:27:38.610Z,24.3
2018-06-05T02:28:28.429Z,24.3
2018-06-05T02:29:19.343Z,24.3
2018-06-05T02:30:08.870Z,24.3
2018-06-05T02:30:58.635Z,24.4
2018-06-05T02:31:47.970Z,24.3
2018-06-05T02:32:38.716Z,24.4
2018-06-05T02:33:28.288Z,24.4
2018-06-05T02:34:20.309Z,24.3
2018-06-05T02:35:08.936Z,24.3
2018-06-05T02:35:59.291Z,24.3
2018-06-05T02:36:49.388Z,24.3
2018-06-05T02:37:39.653Z,24.3
2018-06-05T02:38:29.721Z,24.4
2018-06-05T02:39:18.944Z,24.3
2018-06-05T02:40:09.330Z,24.3
2018-06-05T02:40:59.976Z,24.3
2018-06-05T02:41:50.323Z,24.3
2018-06-05T02:42:39.777Z,24.3
2018-06-05T02:43:30.142Z,24.3
2018-06-05T02:44:19.917Z,24.3
2018-06-05T02:45:10.284Z,24.3
2018-06-05T02:46:00.595Z,24.3
2018-06-05T02:46:49.288Z,24.3
2018-06-05T02:47:40.165Z,24.3
2018-06-05T02:48:30.545Z,24.3
2018-06-05T02:49:20.314Z,24.3
2018-06-05T02:50:10.385Z,24.3
2018-06-05T02:51:00.128Z,24.3
2018-06-05T02:51:51.104Z,24.3
2018-06-05T02:52:41.135Z,24.3
2018-06-05T02:53:30.907Z,24.3
2018-06-05T02:54:20.949Z,24.3
2018-06-05T02:55:11.107Z,24.3
2018-06-05T02:56:01.420Z,24.3
2018-06-05T02:56:50.595Z,24.3
2018-06-05T02:57:41.194Z,24.3
2018-06-05T02:58:29.323Z,24.3
2018-06-05T02:59:21.349Z,24.3
2018-06-05T03:00:10.919Z,24.3
2018-06-05T03:01:00.951Z,24.3
2018-06-05T03:01:51.598Z,24.3
2018-06-05T03:02:41.678Z,24.3
2018-06-05T03:03:31.149Z,24.3
2018-06-05T03:04:21.465Z,24.3
2018-06-05T03:05:10.644Z,24.3
2018-06-05T03:06:01.267Z,24.3
2018-06-05T03:06:51.393Z,24.3
2018-06-05T03:07:41.444Z,24.3
2018-06-05T03:08:31.465Z,24.3
2018-06-05T03:09:21.392Z,24.3
2018-06-05T03:10:11.627Z,24.3
2018-06-05T03:11:01.971Z,24.3
2018-06-05T03:11:51.229Z,24.3
2018-06-05T03:12:41.512Z,24.3
2018-06-05T03:13:32.500Z,24.3
2018-06-05T03:14:22.271Z,24.3
2018-06-05T03:15:11.443Z,24.3
2018-06-05T03:16:02.341Z,24.3
2018-06-05T03:16:52.425Z,24.3
2018-06-05T03:17:41.637Z,24.3
2018-06-05T03:18:31.966Z,24.3
2018-06-05T03:19:22.878Z,24.3
2018-06-05T03:20:13.234Z,24.3
2018-06-05T03:21:01.920Z,24.3
2018-06-05T03:21:52.921Z,24.3
2018-06-05T03:22:43.104Z,24.3
2018-06-05T03:23:32.336Z,24.3
2018-06-05T03:24:23.001Z,24.3
2018-06-05T03:25:27.784Z,24.3
2018-06-05T03:26:02.537Z,24.3
2018-06-05T03:26:53.464Z,24.3
2018-06-05T03:27:42.976Z,24.2
2018-06-05T03:28:33.295Z,24.3
2018-06-05T03:29:23.128Z,24.3
2018-06-05T03:30:13.498Z,24.3
2018-06-05T03:31:03.630Z,24.3
2018-06-05T03:31:53.936Z,24.3
2018-06-05T03:32:43.632Z,24.3
2018-06-05T03:33:34.175Z,24.3
2018-06-05T03:34:23.500Z,24.3
2018-06-05T03:35:14.362Z,24.3
2018-06-05T03:36:03.842Z,24.3
2018-06-05T03:36:54.435Z,24.3
2018-06-05T03:37:44.253Z,24.3
2018-06-05T03:38:33.844Z,24.3
2018-06-05T03:39:24.086Z,24.3
2018-06-05T03:40:14.160Z,24.3
2018-06-05T03:41:04.645Z,24.3
2018-06-05T03:41:54.291Z,24.3
2018-06-05T03:42:44.327Z,24.3
2018-06-05T03:43:34.698Z,24.3
2018-06-05T03:44:25.001Z,24.3
2018-06-05T03:45:14.856Z,24.3
2018-06-05T03:46:05.169Z,24.3
2018-06-05T03:46:54.955Z,24.3
2018-06-05T03:47:43.924Z,24.3
2018-06-05T03:48:34.838Z,24.3
2018-06-05T03:49:25.118Z,24.3
2018-06-05T03:50:15.215Z,24.3
2018-06-05T03:51:04.734Z,24.3
2018-06-05T03:51:54.212Z,24.3
2018-06-05T03:52:44.890Z,24.3
2018-06-05T03:53:35.174Z,24.3
2018-06-05T03:54:24.679Z,24.3
2018-06-05T03:55:15.011Z,24.2
2018-06-05T03:56:05.402Z,24.3
2018-06-05T03:56:55.717Z,24.3
2018-06-05T03:57:45.510Z,24.3
2018-06-05T03:58:36.102Z,24.3
2018-06-05T03:59:26.218Z,24.3
2018-06-05T04:00:16.117Z,24.3
2018-06-05T04:01:05.830Z,24.3
2018-06-05T04:01:55.822Z,24.3
2018-06-05T04:02:46.418Z,24.3
2018-06-05T04:03:36.245Z,24.3
2018-06-05T04:04:25.851Z,24.3
2018-06-05T04:05:16.404Z,24.2
2018-06-05T04:06:05.902Z,24.3
2018-06-05T04:06:56.239Z,24.3
2018-06-05T04:07:46.538Z,24.3
2018-06-05T04:08:36.625Z,24.3
2018-06-05T04:09:25.832Z,24.3
2018-06-05T04:10:16.751Z,24.3
2018-06-05T04:11:06.339Z,24.3
2018-06-05T04:11:56.066Z,24.3
2018-06-05T04:12:46.701Z,24.3
2018-06-05T04:13:37.276Z,24.3
2018-06-05T04:14:26.755Z,24.3
2018-06-05T04:15:16.899Z,24.3
2018-06-05T04:16:06.885Z,24.3
2018-06-05T04:16:56.962Z,24.3
2018-06-05T04:17:46.828Z,24.3
2018-06-05T04:18:37.741Z,24.3
2018-06-05T04:19:26.905Z,24.3
2018-06-05T04:20:16.686Z,24.4
2018-06-05T04:21:06.764Z,24.4
2018-06-05T04:21:56.820Z,24.4
2018-06-05T04:22:47.705Z,24.4
2018-06-05T04:23:37.792Z,24.4
2018-06-05T04:24:27.846Z,24.4
2018-06-05T04:25:17.397Z,24.4
2018-06-05T04:26:07.966Z,24.4
2018-06-05T04:26:58.355Z,24.4
2018-06-05T04:27:48.145Z,24.4
2018-06-05T04:28:37.830Z,24.4
2018-06-05T04:29:28.463Z,24.4
2018-06-05T04:30:17.718Z,24.4
2018-06-05T04:31:08.152Z,24.4
2018-06-05T04:31:58.384Z,24.4
2018-06-05T04:32:48.740Z,24.4
2018-06-05T04:33:38.240Z,24.4
2018-06-05T04:34:28.810Z,24.4
2018-06-05T04:35:18.657Z,24.4
2018-06-05T04:36:08.868Z,24.4
2018-06-05T04:36:57.965Z,24.4
2018-06-05T04:37:48.027Z,24.4
2018-06-05T04:38:38.946Z,24.4
2018-06-05T04:39:28.723Z,24.4
2018-06-05T04:40:18.735Z,24.4
2018-06-05T04:41:08.073Z,24.4
2018-06-05T04:41:58.606Z,24.4
2018-06-05T04:42:49.358Z,24.4
2018-06-05T04:43:39.021Z,24.4
2018-06-05T04:44:28.810Z,24.4
2018-06-05T04:45:18.620Z,24.4
2018-06-05T04:46:08.165Z,24.4
2018-06-05T04:46:59.241Z,24.4
2018-06-05T04:47:50.124Z,24.4
2018-06-05T04:48:39.401Z,24.4
2018-06-05T04:49:30.049Z,24.4
2018-06-05T04:50:19.769Z,24.5
2018-06-05T04:51:10.157Z,24.5
2018-06-05T04:51:59.358Z,24.4
2018-06-05T04:52:49.202Z,24.4
2018-06-05T04:53:39.517Z,24.5
2018-06-05T04:54:30.405Z,24.5
2018-06-05T04:55:20.531Z,24.5
2018-06-05T04:56:10.259Z,24.5
2018-06-05T04:56:59.261Z,24.5
2018-06-05T04:57:49.632Z,24.6
2018-06-05T04:58:40.186Z,24.6
2018-06-05T04:59:29.522Z,24.5
2018-06-05T05:00:20.583Z,24.5
2018-06-05T05:01:10.056Z,24.6
2018-06-05T05:02:00.430Z,24.5
2018-06-05T05:02:50.505Z,24.5
2018-06-05T05:03:40.832Z,24.5
2018-06-05T05:04:30.096Z,24.6
2018-06-05T05:05:20.693Z,24.6
2018-06-05T05:06:10.568Z,24.6
2018-06-05T05:07:00.246Z,24.6
2018-06-05T05:07:50.338Z,24.6
2018-06-05T05:08:41.233Z,24.6
2018-06-05T05:09:30.758Z,24.5
2018-06-05T05:10:20.783Z,24.6
2018-06-05T05:11:10.940Z,24.6
2018-06-05T05:12:00.939Z,24.5
2018-06-05T05:12:50.775Z,24.6
2018-06-05T05:13:41.038Z,24.6
2018-06-05T05:14:31.382Z,24.6
2018-06-05T05:15:21.493Z,24.6
2018-06-05T05:16:11.272Z,24.6
2018-06-05T05:17:00.474Z,24.6
2018-06-05T05:17:51.068Z,24.6
2018-06-05T05:18:41.751Z,24.6
2018-06-05T05:19:31.237Z,24.6
2018-06-05T05:20:21.542Z,24.6
2018-06-05T05:21:12.249Z,24.6
2018-06-05T05:22:01.170Z,24.6
2018-06-05T05:22:52.573Z,24.6
2018-06-05T05:23:42.659Z,24.6
2018-06-05T05:24:32.142Z,24.6
2018-06-05T05:25:22.224Z,24.6
2018-06-05T05:26:12.301Z,24.6
2018-06-05T05:27:02.108Z,24.6
2018-06-05T05:27:53.015Z,24.6
2018-06-05T05:28:42.480Z,24.6
2018-06-05T05:29:33.116Z,24.6
2018-06-05T05:30:23.178Z,24.6
2018-06-05T05:31:13.011Z,24.6
2018-06-05T05:32:02.261Z,24.6
2018-06-05T05:32:52.758Z,24.6
2018-06-05T05:33:42.248Z,24.6
2018-06-05T05:34:33.238Z,24.6
2018-06-05T05:35:23.338Z,24.6
2018-06-05T05:36:13.334Z,24.5
2018-06-05T05:37:02.828Z,24.6
2018-06-05T05:37:53.184Z,24.6
2018-06-05T05:38:43.526Z,24.6
2018-06-05T05:39:33.359Z,24.6
2018-06-05T05:40:23.871Z,24.6
2018-06-05T05:41:13.133Z,24.6
2018-06-05T05:42:03.826Z,24.6
2018-06-05T05:42:52.867Z,24.6
2018-06-05T05:43:43.639Z,24.6
2018-06-05T05:44:33.988Z,24.6
2018-06-05T05:45:23.512Z,24.6
2018-06-05T05:46:13.554Z,24.6
2018-06-05T05:47:03.822Z,24.7
2018-06-05T05:47:53.806Z,24.6
2018-06-05T05:48:44.107Z,24.6
2018-06-05T05:49:33.996Z,24.6
2018-06-05T05:50:24.203Z,24.7
2018-06-05T05:51:13.940Z,24.6
2018-06-05T05:52:03.239Z,24.6
2018-06-05T05:52:54.441Z,24.6
2018-06-05T05:53:44.213Z,24.6
2018-06-05T05:54:34.547Z,24.6
2018-06-05T05:55:24.303Z,24.6
2018-06-05T05:56:14.880Z,24.6
2018-06-05T05:57:04.445Z,24.6
2018-06-05T05:57:54.456Z,24.6
2018-06-05T05:58:45.121Z,24.6
2018-06-05T05:59:34.883Z,24.6
2018-06-05T06:00:24.684Z,24.6
2018-06-05T06:01:15.345Z,24.6
2018-06-05T06:02:05.163Z,24.6
2018-06-05T06:02:55.721Z,24.6
2018-06-05T06:03:45.776Z,24.6
2018-06-05T06:04:35.823Z,24.6
2018-06-05T06:05:24.760Z,24.6
2018-06-05T06:06:15.113Z,24.6
2018-06-05T06:07:06.077Z,24.6
2018-06-05T06:07:55.545Z,24.6
2018-06-05T06:08:45.387Z,24.6
2018-06-05T06:09:35.891Z,24.6
2018-06-05T06:10:26.015Z,24.6
2018-06-05T06:11:15.782Z,24.6
2018-06-05T06:12:06.109Z,24.6
2018-06-05T06:12:55.932Z,24.7
2018-06-05T06:13:46.004Z,24.7
2018-06-05T06:14:36.025Z,24.6
2018-06-05T06:15:25.842Z,24.6
2018-06-05T06:16:15.881Z,24.6
2018-06-05T06:17:06.421Z,24.7
2018-06-05T06:17:56.003Z,24.7
2018-06-05T06:18:46.103Z,24.7
2018-06-05T06:19:36.994Z,24.7
2018-06-05T06:20:26.237Z,24.7
2018-06-05T06:21:16.269Z,24.7
2018-06-05T06:22:06.166Z,24.7
2018-06-05T06:22:56.397Z,24.7
2018-06-05T06:23:47.270Z,24.7
2018-06-05T06:24:36.541Z,24.6
2018-06-05T06:25:27.141Z,24.7
2018-06-05T06:26:16.073Z,24.7
2018-06-05T06:27:08.342Z,24.8
2018-06-05T06:27:56.846Z,24.7
2018-06-05T06:28:47.417Z,24.7
2018-06-05T06:29:36.935Z,24.8
2018-06-05T06:30:27.824Z,24.8
2018-06-05T06:31:16.733Z,24.8
2018-06-05T06:32:07.116Z,24.8
2018-06-05T06:32:56.573Z,24.8
2018-06-05T06:33:47.838Z,24.8
2018-06-05T06:34:38.101Z,24.8
2018-06-05T06:35:27.045Z,24.8
2018-06-05T06:36:17.369Z,24.8
2018-06-05T06:37:07.488Z,24.8
2018-06-05T06:37:58.437Z,24.9
2018-06-05T06:38:47.334Z,24.9
2018-06-05T06:39:37.955Z,24.9
2018-06-05T06:40:28.358Z,25
2018-06-05T06:41:18.109Z,25
2018-06-05T06:42:07.674Z,25
2018-06-05T06:42:58.018Z,25.1
2018-06-05T06:43:47.489Z,25.1
2018-06-05T06:44:38.639Z,25.1
2018-06-05T06:45:28.441Z,25.1
2018-06-05T06:46:18.768Z,25.1
2018-06-05T06:47:08.545Z,25.1
2018-06-05T06:47:58.337Z,25.1
2018-06-05T06:48:49.188Z,25.1
2018-06-05T06:49:39.050Z,25.1
2018-06-05T06:50:28.246Z,25.1
2018-06-05T06:51:18.125Z,25.1
2018-06-05T06:52:08.676Z,25.1
2018-06-05T06:52:59.030Z,25.2
2018-06-05T06:53:49.426Z,25.2
2018-06-05T06:54:40.133Z,25.2
2018-06-05T06:55:28.629Z,25.2
2018-06-05T06:56:19.188Z,25.2
2018-06-05T06:57:08.995Z,25.2
2018-06-05T06:57:59.931Z,25.2
2018-06-05T06:58:49.963Z,25.2
2018-06-05T06:59:38.890Z,25.2
2018-06-05T07:00:29.517Z,25.3
2018-06-05T07:01:18.748Z,25.3
2018-06-05T07:02:09.383Z,25.3
2018-06-05T07:02:59.977Z,25.3
2018-06-05T07:03:47.896Z,25.3
2018-06-05T07:04:39.347Z,25.3
2018-06-05T07:05:29.426Z,25.3
2018-06-05T07:06:19.451Z,25.3
2018-06-05T07:07:10.155Z,25.3
2018-06-05T07:07:58.778Z,25.3
2018-06-05T07:08:49.969Z,25.3
2018-06-05T07:09:39.427Z,25.3
2018-06-05T07:10:30.055Z,25.3
2018-06-05T07:11:20.370Z,25.3
2018-06-05T07:12:10.957Z,25.3
2018-06-05T07:12:59.919Z,25.3
2018-06-05T07:13:50.837Z,25.4
2018-06-05T07:14:40.684Z,25.4
2018-06-05T07:15:31.024Z,25.4
2018-06-05T07:16:20.190Z,25.4
2018-06-05T07:17:11.312Z,25.4
2018-06-05T07:18:00.825Z,25.4
2018-06-05T07:18:51.467Z,25.4
2018-06-05T07:19:40.999Z,25.4
2018-06-05T07:20:31.621Z,25.4
2018-06-05T07:21:20.824Z,25.4
2018-06-05T07:22:10.902Z,25.4
2018-06-05T07:23:01.806Z,25.5
2018-06-05T07:23:51.634Z,25.4
2018-06-05T07:24:41.402Z,25.5
2018-06-05T07:25:32.046Z,25.5
2018-06-05T07:26:21.546Z,25.5
2018-06-05T07:27:11.906Z,25.5
2018-06-05T07:28:01.412Z,25.5
2018-06-05T07:28:51.714Z,25.5
2018-06-05T07:29:41.752Z,25.6
2018-06-05T07:30:32.844Z,25.6
2018-06-05T07:31:21.053Z,25.5
2018-06-05T07:32:11.983Z,25.6
2018-06-05T07:33:02.347Z,25.6
2018-06-05T07:33:52.143Z,25.6
2018-06-05T07:34:41.962Z,25.6
2018-06-05T07:35:32.037Z,25.6
2018-06-05T07:36:22.861Z,25.6
2018-06-05T07:37:12.155Z,25.6
2018-06-05T07:38:02.686Z,25.6
2018-06-05T07:38:52.463Z,25.6
2018-06-05T07:39:41.992Z,25.6
2018-06-05T07:40:32.314Z,25.6
2018-06-05T07:41:22.682Z,25.6
2018-06-05T07:42:13.342Z,25.6
2018-06-05T07:43:02.771Z,25.6
2018-06-05T07:43:52.274Z,25.7
2018-06-05T07:44:43.489Z,25.7
2018-06-05T07:45:32.988Z,25.7
2018-06-05T07:46:23.391Z,25.7
2018-06-05T07:47:13.229Z,25.7
2018-06-05T07:48:03.224Z,25.8
2018-06-05T07:48:53.488Z,25.8
2018-06-05T07:49:43.024Z,25.8
2018-06-05T07:50:33.975Z,25.8
2018-06-05T07:51:22.637Z,25.8
2018-06-05T07:52:13.574Z,25.8
2018-06-05T07:53:03.346Z,25.8
2018-06-05T07:53:53.386Z,25.8
2018-06-05T07:54:43.185Z,25.8
2018-06-05T07:55:34.239Z,25.8
2018-06-05T07:56:24.425Z,25.8
2018-06-05T07:57:14.169Z,25.8
2018-06-05T07:58:03.968Z,25.8
2018-06-05T07:58:54.584Z,25.8
2018-06-05T07:59:44.101Z,25.8
2018-06-05T08:00:34.196Z,25.8
2018-06-05T08:01:24.078Z,25.8
2018-06-05T08:02:14.841Z,25.8
2018-06-05T08:03:04.649Z,25.8
2018-06-05T08:03:54.449Z,25.8
2018-06-05T08:04:44.778Z,25.8
2018-06-05T08:05:33.983Z,25.8
2018-06-05T08:06:24.061Z,25.8
2018-06-05T08:07:15.360Z,25.8
2018-06-05T08:08:04.759Z,25.9
2018-06-05T08:08:55.161Z,25.8
2018-06-05T08:09:44.884Z,25.9
2018-06-05T08:10:34.919Z,25.9
2018-06-05T08:11:25.051Z,25.9
2018-06-05T08:12:15.668Z,25.9
2018-06-05T08:13:04.995Z,25.9
2018-06-05T08:13:54.768Z,25.9
2018-06-05T08:14:44.213Z,25.9
2018-06-05T08:15:34.862Z,25.9
2018-06-05T08:16:24.424Z,25.9
2018-06-05T08:17:14.612Z,25.9
2018-06-05T08:18:06.144Z,25.9
2018-06-05T08:18:55.854Z,25.9
2018-06-05T08:19:45.657Z,25.9
2018-06-05T08:20:36.280Z,25.9
2018-06-05T08:21:25.840Z,25.9
2018-06-05T08:22:16.126Z,25.9
2018-06-05T08:23:05.366Z,25.9
2018-06-05T08:23:55.319Z,25.9
2018-06-05T08:24:46.178Z,25.9
2018-06-05T08:25:35.298Z,25.9
2018-06-05T08:26:26.171Z,25.9
2018-06-05T08:27:16.775Z,25.9
2018-06-05T08:28:05.971Z,25.9
2018-06-05T08:28:56.960Z,25.9
2018-06-05T08:29:46.715Z,25.9
2018-06-05T08:30:37.017Z,26
2018-06-05T08:31:26.339Z,26
2018-06-05T08:32:16.933Z,26
2018-06-05T08:33:06.986Z,26
2018-06-05T08:33:56.743Z,26
2018-06-05T08:34:46.577Z,26
2018-06-05T08:35:37.443Z,26
2018-06-05T08:36:26.386Z,26
2018-06-05T08:37:16.993Z,26
2018-06-05T08:38:07.860Z,26
2018-06-05T08:38:57.413Z,26
2018-06-05T08:39:46.965Z,26
2018-06-05T08:40:36.439Z,26
2018-06-05T08:41:27.092Z,26
2018-06-05T08:42:17.507Z,26
2018-06-05T08:43:06.644Z,26
2018-06-05T08:43:57.504Z,26
2018-06-05T08:44:47.878Z,26
2018-06-05T08:45:37.960Z,26
2018-06-05T08:46:27.436Z,26
2018-06-05T08:47:17.022Z,26
2018-06-05T08:48:08.307Z,26.1
2018-06-05T08:48:58.587Z,26.1
2018-06-05T08:49:47.772Z,26.1
2018-06-05T08:50:37.826Z,26.1
2018-06-05T08:51:26.832Z,26.1
2018-06-05T08:52:17.403Z,26.1
2018-06-05T08:53:07.934Z,26.1
2018-06-05T08:53:57.274Z,26.1
2018-06-05T08:54:47.336Z,26.1
2018-06-05T08:55:38.311Z,26.1
2018-06-05T08:56:27.761Z,26.1
2018-06-05T08:57:18.602Z,26
2018-06-05T08:58:07.879Z,26.1
2018-06-05T08:58:58.492Z,26.1
2018-06-05T08:59:48.888Z,26.1
2018-06-05T09:00:39.119Z,26.1
2018-06-05T09:01:27.848Z,26.1
2018-06-05T09:02:19.268Z,26.1
2018-06-05T09:03:09.127Z,26.1
2018-06-05T09:03:59.348Z,26.1
2018-06-05T09:04:48.463Z,26.1
2018-06-05T09:05:39.494Z,26.1
2018-06-05T09:06:28.767Z,26.1
2018-06-05T09:07:19.458Z,26.1
2018-06-05T09:08:08.966Z,26.1
2018-06-05T09:08:59.058Z,26.1
2018-06-05T09:09:49.509Z,26.1
2018-06-05T09:10:39.603Z,26.1
2018-06-05T09:11:29.493Z,26.1
2018-06-05T09:12:18.757Z,26.1
2018-06-05T09:13:09.773Z,26.1
2018-06-05T09:13:59.852Z,26.1
2018-06-05T09:14:50.213Z,26.1
2018-06-05T09:15:39.979Z,26.1
2018-06-05T09:16:29.488Z,26.1
2018-06-05T09:17:20.158Z,26.1
2018-06-05T09:18:08.975Z,26.1
2018-06-05T09:19:00.509Z,26.1
2018-06-05T09:19:50.101Z,26.2
2018-06-05T09:20:39.653Z,26.1
2018-06-05T09:21:30.176Z,26.1
2018-06-05T09:22:20.190Z,26.1
2018-06-05T09:23:10.597Z,26.1
2018-06-05T09:24:00.885Z,26.1
2018-06-05T09:24:50.677Z,26.2
2018-06-05T09:25:39.940Z,26.2
2018-06-05T09:26:31.122Z,26.1
2018-06-05T09:27:21.131Z,26.1
2018-06-05T09:28:10.462Z,26.1
2018-06-05T09:29:02.183Z,26.2
2018-06-05T09:29:50.993Z,26.2
2018-06-05T09:30:41.096Z,26.2
2018-06-05T09:31:30.146Z,26.2
2018-06-05T09:32:21.033Z,26.2
2018-06-05T09:33:11.590Z,26.2
2018-06-05T09:34:01.099Z,26.2
2018-06-05T09:34:51.685Z,26.2
2018-06-05T09:35:41.265Z,26.2
2018-06-05T09:36:31.885Z,26.2
2018-06-05T09:37:22.239Z,26.2
2018-06-05T09:38:11.420Z,26.2
2018-06-05T09:39:01.860Z,26.2
2018-06-05T09:39:52.173Z,26.2
2018-06-05T09:40:41.988Z,26.2
2018-06-05T09:41:31.478Z,26.3
2018-06-05T09:42:22.319Z,26.2
2018-06-05T09:43:11.397Z,26.3
2018-06-05T09:44:02.501Z,26.2
2018-06-05T09:44:52.576Z,26.3
2018-06-05T09:45:41.743Z,26.3
2018-06-05T09:46:32.418Z,26.3
2018-06-05T09:47:22.551Z,26.2
2018-06-05T09:48:12.461Z,26.3
2018-06-05T09:49:01.850Z,26.3
2018-06-05T09:49:53.028Z,26.3
2018-06-05T09:50:42.483Z,26.2
2018-06-05T09:51:31.981Z,26.2
2018-06-05T09:52:21.677Z,26.3
2018-06-05T09:53:13.240Z,26.2
2018-06-05T09:54:02.141Z,26.3
2018-06-05T09:54:52.505Z,26.3
2018-06-05T09:55:42.543Z,26.3
2018-06-05T09:56:32.691Z,26.3
2018-06-05T09:57:23.298Z,26.3
2018-06-05T09:58:13.208Z,26.3
2018-06-05T09:59:03.675Z,26.3
2018-06-05T09:59:52.928Z,26.3
2018-06-05T10:00:42.927Z,26.3
2018-06-05T10:01:33.000Z,26.3
2018-06-05T10:02:22.801Z,26.3
2018-06-05T10:03:13.458Z,26.3
2018-06-05T10:04:04.383Z,26.3
2018-06-05T10:04:54.470Z,26.3
2018-06-05T10:05:43.647Z,26.3
2018-06-05T10:06:34.505Z,26.3
2018-06-05T10:07:24.072Z,26.3
2018-06-05T10:08:14.597Z,26.3
2018-06-05T10:09:04.343Z,26.3
2018-06-05T10:09:54.575Z,26.3
2018-06-05T10:10:44.241Z,26.3
2018-06-05T10:11:34.636Z,26.3
2018-06-05T10:12:24.989Z,26.3
2018-06-05T10:13:14.259Z,26.3
2018-06-05T10:14:04.762Z,26.3
2018-06-05T10:14:54.326Z,26.3
2018-06-05T10:15:44.969Z,26.3
2018-06-05T10:16:34.236Z,26.3
2018-06-05T10:17:25.380Z,26.3
2018-06-05T10:18:15.170Z,26.3
2018-06-05T10:19:05.235Z,26.3
2018-06-05T10:19:54.768Z,26.3
2018-06-05T10:20:45.098Z,26.3
2018-06-05T10:21:35.105Z,26.3
2018-06-05T10:22:25.470Z,26.3
2018-06-05T10:23:15.564Z,26.3
2018-06-05T10:24:05.284Z,26.3
2018-06-05T10:24:55.640Z,26.3
2018-06-05T10:25:44.589Z,26.3
2018-06-05T10:26:35.761Z,26.3
2018-06-05T10:27:25.274Z,26.3
2018-06-05T10:28:15.953Z,26.3
2018-06-05T10:29:04.838Z,26.3
2018-06-05T10:29:55.762Z,26.3
2018-06-05T10:30:46.491Z,26.4
2018-06-05T10:31:35.890Z,26.4
2018-06-05T10:32:25.965Z,26.4
2018-06-05T10:33:16.294Z,26.4
2018-06-05T10:34:05.817Z,26.3
2018-06-05T10:34:56.555Z,26.3
2018-06-05T10:35:46.566Z,26.3
2018-06-05T10:36:36.601Z,26.3
2018-06-05T10:37:26.622Z,26.3
2018-06-05T10:38:16.943Z,26.3
2018-06-05T10:39:06.884Z,26.3
2018-06-05T10:39:57.157Z,26.4
2018-06-05T10:40:46.358Z,26.4
2018-06-05T10:41:36.397Z,26.4
2018-06-05T10:42:26.444Z,26.4
2018-06-05T10:43:16.507Z,26.4
2018-06-05T10:44:06.016Z,26.4
2018-06-05T10:44:56.908Z,26.4
2018-06-05T10:45:47.032Z,26.4
2018-06-05T10:46:36.606Z,26.4
2018-06-05T10:47:27.157Z,26.4
2018-06-05T10:48:17.484Z,26.4
2018-06-05T10:49:07.395Z,26.4
2018-06-05T10:49:57.615Z,26.4
2018-06-05T10:50:47.407Z,26.4
2018-06-05T10:51:37.225Z,26.4
2018-06-05T10:52:27.026Z,26.4
2018-06-05T10:53:17.357Z,26.4
2018-06-05T10:54:07.090Z,26.4
2018-06-05T10:54:57.736Z,26.4
2018-06-05T10:55:48.103Z,26.4
2018-06-05T10:56:38.153Z,26.4
2018-06-05T10:57:27.884Z,26.4
2018-06-05T10:58:18.271Z,26.4
2018-06-05T10:59:07.908Z,26.4
2018-06-05T10:59:58.398Z,26.4
2018-06-05T11:00:48.794Z,26.4
2018-06-05T11:01:38.355Z,26.4
2018-06-05T11:02:28.557Z,26.4
2018-06-05T11:03:18.685Z,26.4
2018-06-05T11:04:08.765Z,26.4
2018-06-05T11:04:58.209Z,26.4
2018-06-05T11:05:48.531Z,26.4
2018-06-05T11:06:38.634Z,26.4
2018-06-05T11:07:28.403Z,26.4
2018-06-05T11:08:18.550Z,26.4